<?xml version="1.0" encoding="UTF-8" standalone="no" ?>
<gpx xmlns="http://www.topografix.com/GPX/1/1" xmlns:xsi="http://www.w3.org/2001/XMLSchema-instance" xsi:schemaLocation="http://www.topografix.com/GPX/1/1 http://www.topografix.com/GPX/1/1/gpx.xsd" version="1.1" creator="VisuGPX - https://www.visugpx.com">
  <metadata>
    <name>Argentina</name>
    <desc><![CDATA[Downloaded from eMap Software Version 2.75]]></desc>
  </metadata>
  <trk>
    <name><![CDATA[Argentina_34]]></name>
    <extensions>
      <line xmlns="http://www.topografix.com/GPX/gpx_style/0/2">
        <color>ff0000</color>
        <opacity>0.78</opacity>
        <width>0.6000</width>
      </line>
    </extensions>
    <trkseg>
      <trkpt lat="-27.76249" lon="-62.69024">
        <ele>130.395996</ele>
        <time>2005-12-12T20:06:57Z</time>
      </trkpt>
      <trkpt lat="-27.76243" lon="-62.68975">
        <ele>130.395996</ele>
        <time>2005-12-12T20:06:59Z</time>
      </trkpt>
      <trkpt lat="-27.76213" lon="-62.68303">
        <ele>130.395996</ele>
        <time>2005-12-12T20:07:24Z</time>
      </trkpt>
      <trkpt lat="-27.76192" lon="-62.67655">
        <ele>130.395996</ele>
        <time>2005-12-12T20:07:48Z</time>
      </trkpt>
      <trkpt lat="-27.76136" lon="-62.67481">
        <ele>130.395996</ele>
        <time>2005-12-12T20:07:55Z</time>
      </trkpt>
      <trkpt lat="-27.75996" lon="-62.6726">
        <ele>130.395996</ele>
        <time>2005-12-12T20:08:05Z</time>
      </trkpt>
      <trkpt lat="-27.75634" lon="-62.6669">
        <ele>129.434692</ele>
        <time>2005-12-12T20:08:31Z</time>
      </trkpt>
      <trkpt lat="-27.75271" lon="-62.66119">
        <ele>129.434692</ele>
        <time>2005-12-12T20:08:57Z</time>
      </trkpt>
      <trkpt lat="-27.74893" lon="-62.65522">
        <ele>129.915283</ele>
        <time>2005-12-12T20:09:24Z</time>
      </trkpt>
      <trkpt lat="-27.74548" lon="-62.64971">
        <ele>129.915283</ele>
        <time>2005-12-12T20:09:49Z</time>
      </trkpt>
      <trkpt lat="-27.7417" lon="-62.64372">
        <ele>129.915283</ele>
        <time>2005-12-12T20:10:16Z</time>
      </trkpt>
      <trkpt lat="-27.73795" lon="-62.63773">
        <ele>129.915283</ele>
        <time>2005-12-12T20:10:43Z</time>
      </trkpt>
      <trkpt lat="-27.73449" lon="-62.63222">
        <ele>129.915283</ele>
        <time>2005-12-12T20:11:08Z</time>
      </trkpt>
      <trkpt lat="-27.7329" lon="-62.62922">
        <ele>129.915283</ele>
        <time>2005-12-12T20:11:21Z</time>
      </trkpt>
      <trkpt lat="-27.73072" lon="-62.62231">
        <ele>129.915283</ele>
        <time>2005-12-12T20:11:48Z</time>
      </trkpt>
      <trkpt lat="-27.72855" lon="-62.6157">
        <ele>129.915283</ele>
        <time>2005-12-12T20:12:14Z</time>
      </trkpt>
      <trkpt lat="-27.72647" lon="-62.6093">
        <ele>129.915283</ele>
        <time>2005-12-12T20:12:39Z</time>
      </trkpt>
      <trkpt lat="-27.72447" lon="-62.60321">
        <ele>129.434692</ele>
        <time>2005-12-12T20:13:03Z</time>
      </trkpt>
      <trkpt lat="-27.72256" lon="-62.59731">
        <ele>129.434692</ele>
        <time>2005-12-12T20:13:26Z</time>
      </trkpt>
      <trkpt lat="-27.7208" lon="-62.59203">
        <ele>129.434692</ele>
        <time>2005-12-12T20:13:47Z</time>
      </trkpt>
      <trkpt lat="-27.71812" lon="-62.58594">
        <ele>128.473389</ele>
        <time>2005-12-12T20:14:12Z</time>
      </trkpt>
      <trkpt lat="-27.71574" lon="-62.58066">
        <ele>129.434692</ele>
        <time>2005-12-12T20:14:34Z</time>
      </trkpt>
      <trkpt lat="-27.71226" lon="-62.57298">
        <ele>129.434692</ele>
        <time>2005-12-12T20:15:06Z</time>
      </trkpt>
      <trkpt lat="-27.70909" lon="-62.566">
        <ele>128.954102</ele>
        <time>2005-12-12T20:15:35Z</time>
      </trkpt>
      <trkpt lat="-27.70615" lon="-62.55952">
        <ele>128.954102</ele>
        <time>2005-12-12T20:16:02Z</time>
      </trkpt>
      <trkpt lat="-27.7031" lon="-62.55278">
        <ele>128.954102</ele>
        <time>2005-12-12T20:16:30Z</time>
      </trkpt>
      <trkpt lat="-27.6996" lon="-62.54506">
        <ele>128.954102</ele>
        <time>2005-12-12T20:17:02Z</time>
      </trkpt>
      <trkpt lat="-27.69383" lon="-62.53221">
        <ele>128.954102</ele>
        <time>2005-12-12T20:17:55Z</time>
      </trkpt>
      <trkpt lat="-27.68952" lon="-62.52261">
        <ele>128.954102</ele>
        <time>2005-12-12T20:18:35Z</time>
      </trkpt>
    </trkseg>
  </trk>
</gpx>